sensor_id;sensor_type;location;lat;lon;timestamp;pressure;altitude;pressure_sealevel;temperature;humidity
4024;BME280;2026;51.002;13.668;2023-02-01T00:03:49;98900.34;;;4.43;80.49
4024;BME280;2026;51.002;13.668;2023-02-01T00:08:52;98897.94;;;4.42;80.74
4024;BME280;2026;51.002;13.668;2023-02-01T00:13:56;98891.47;;;4.38;81.23
4024;BME280;2026;51.002;13.668;2023-02-01T00:19:02;98885.50;;;4.37;81.28
4024;BME280;2026;51.002;13.668;2023-02-01T00:24:06;98897.50;;;4.38;81.62
4024;BME280;2026;51.002;13.668;2023-02-01T00:29:12;98899.47;;;4.36;81.71
4024;BME280;2026;51.002;13.668;2023-02-01T00:34:17;98888.63;;;4.33;81.04
4024;BME280;2026;51.002;13.668;2023-02-01T00:39:20;98894.59;;;4.33;81.36
4024;BME280;2026;51.002;13.668;2023-02-01T00:44:23;98893.28;;;4.37;80.85
4024;BME280;2026;51.002;13.668;2023-02-01T00:49:27;98896.97;;;4.43;80.02
4024;BME280;2026;51.002;13.668;2023-02-01T00:54:30;98898.19;;;4.32;79.66
4024;BME280;2026;51.002;13.668;2023-02-01T00:59:34;98903.38;;;4.32;79.87
4024;BME280;2026;51.002;13.668;2023-02-01T01:04:38;98903.59;;;4.46;79.29
4024;BME280;2026;51.002;13.668;2023-02-01T01:09:41;98911.25;;;4.39;79.49
4024;BME280;2026;51.002;13.668;2023-02-01T01:14:45;98903.69;;;4.37;79.33
4024;BME280;2026;51.002;13.668;2023-02-01T01:19:49;98898.19;;;4.32;79.07
4024;BME280;2026;51.002;13.668;2023-02-01T01:24:52;98897.56;;;4.30;79.11
4024;BME280;2026;51.002;13.668;2023-02-01T01:29:55;98889.41;;;4.33;78.83
4024;BME280;2026;51.002;13.668;2023-02-01T01:35:00;98890.09;;;4.27;78.38
4024;BME280;2026;51.002;13.668;2023-02-01T01:40:04;98889.31;;;4.26;78.25
4024;BME280;2026;51.002;13.668;2023-02-01T01:45:19;98880.72;;;4.26;78.19
4024;BME280;2026;51.002;13.668;2023-02-01T01:50:27;98875.25;;;4.21;78.61
4024;BME280;2026;51.002;13.668;2023-02-01T01:55:33;98890.53;;;4.15;78.66
4024;BME280;2026;51.002;13.668;2023-02-01T02:00:38;98864.75;;;4.14;78.22
4024;BME280;2026;51.002;13.668;2023-02-01T02:05:43;98873.53;;;4.13;77.91
4024;BME280;2026;51.002;13.668;2023-02-01T02:10:48;98877.25;;;4.10;76.93
4024;BME280;2026;51.002;13.668;2023-02-01T02:16:19;98867.19;;;4.15;76.29
4024;BME280;2026;51.002;13.668;2023-02-01T02:21:41;98877.72;;;4.14;76.79
4024;BME280;2026;51.002;13.668;2023-02-01T02:27:15;98862.97;;;4.14;77.31
4024;BME280;2026;51.002;13.668;2023-02-01T02:32:45;98868.84;;;4.08;77.39
4024;BME280;2026;51.002;13.668;2023-02-01T02:37:55;98864.66;;;4.07;76.70
4024;BME280;2026;51.002;13.668;2023-02-01T02:43:10;98856.34;;;4.12;77.34
4024;BME280;2026;51.002;13.668;2023-02-01T02:48:35;98856.50;;;4.10;77.08
4024;BME280;2026;51.002;13.668;2023-02-01T02:53:48;98863.97;;;4.13;77.29
4024;BME280;2026;51.002;13.668;2023-02-01T02:59:14;98846.19;;;4.02;77.32
4024;BME280;2026;51.002;13.668;2023-02-01T03:04:35;98851.38;;;4.02;77.10
4024;BME280;2026;51.002;13.668;2023-02-01T03:09:41;98854.28;;;4.07;76.78
4024;BME280;2026;51.002;13.668;2023-02-01T03:14:51;98854.97;;;4.01;76.96
4024;BME280;2026;51.002;13.668;2023-02-01T03:19:55;98856.41;;;4.04;76.49
4024;BME280;2026;51.002;13.668;2023-02-01T03:25:06;98861.69;;;4.10;75.78
4024;BME280;2026;51.002;13.668;2023-02-01T03:30:18;98855.72;;;4.10;75.92
4024;BME280;2026;51.002;13.668;2023-02-01T03:35:28;98852.94;;;4.11;75.89
4024;BME280;2026;51.002;13.668;2023-02-01T03:40:35;98852.66;;;4.06;76.60
4024;BME280;2026;51.002;13.668;2023-02-01T03:45:43;98859.47;;;4.07;76.17
4024;BME280;2026;51.002;13.668;2023-02-01T03:50:50;98861.53;;;4.12;75.85
4024;BME280;2026;51.002;13.668;2023-02-01T03:55:57;98844.63;;;4.16;75.49
4024;BME280;2026;51.002;13.668;2023-02-01T04:01:00;98850.00;;;4.14;75.50
4024;BME280;2026;51.002;13.668;2023-02-01T04:06:06;98845.44;;;4.17;76.14
4024;BME280;2026;51.002;13.668;2023-02-01T04:11:11;98845.44;;;4.17;75.52
4024;BME280;2026;51.002;13.668;2023-02-01T04:16:14;98832.38;;;4.25;74.71
4024;BME280;2026;51.002;13.668;2023-02-01T04:21:17;98833.53;;;4.22;74.86
4024;BME280;2026;51.002;13.668;2023-02-01T04:26:22;98829.78;;;4.25;74.49
4024;BME280;2026;51.002;13.668;2023-02-01T04:31:24;98814.75;;;4.20;74.79
4024;BME280;2026;51.002;13.668;2023-02-01T04:36:28;98805.69;;;4.16;74.29
4024;BME280;2026;51.002;13.668;2023-02-01T04:41:33;98803.75;;;4.18;74.89
4024;BME280;2026;51.002;13.668;2023-02-01T04:46:36;98801.06;;;4.26;74.13
4024;BME280;2026;51.002;13.668;2023-02-01T04:51:39;98803.38;;;4.21;74.17
4024;BME280;2026;51.002;13.668;2023-02-01T04:56:43;98789.78;;;4.19;74.35
4024;BME280;2026;51.002;13.668;2023-02-01T05:01:46;98777.97;;;4.17;74.24
4024;BME280;2026;51.002;13.668;2023-02-01T05:06:49;98763.66;;;4.21;73.48
4024;BME280;2026;51.002;13.668;2023-02-01T05:11:54;98755.59;;;4.31;72.75
4024;BME280;2026;51.002;13.668;2023-02-01T05:17:14;98741.91;;;4.22;73.40
4024;BME280;2026;51.002;13.668;2023-02-01T05:22:17;98757.13;;;4.25;72.76
4024;BME280;2026;51.002;13.668;2023-02-01T05:27:22;98753.28;;;4.21;73.10
4024;BME280;2026;51.002;13.668;2023-02-01T05:32:25;98739.94;;;4.24;73.04
4024;BME280;2026;51.002;13.668;2023-02-01T05:37:28;98724.91;;;4.34;73.05
4024;BME280;2026;51.002;13.668;2023-02-01T05:42:32;98738.34;;;4.23;73.31
4024;BME280;2026;51.002;13.668;2023-02-01T05:47:35;98737.63;;;4.29;72.59
4024;BME280;2026;51.002;13.668;2023-02-01T05:52:38;98744.06;;;4.33;72.56
4024;BME280;2026;51.002;13.668;2023-02-01T05:57:42;98728.84;;;4.30;72.67
4024;BME280;2026;51.002;13.668;2023-02-01T06:02:45;98733.69;;;4.33;72.97
4024;BME280;2026;51.002;13.668;2023-02-01T06:07:48;98736.44;;;4.32;72.73
4024;BME280;2026;51.002;13.668;2023-02-01T06:12:53;98728.75;;;4.23;72.83
4024;BME280;2026;51.002;13.668;2023-02-01T06:17:56;98737.19;;;4.25;72.67
4024;BME280;2026;51.002;13.668;2023-02-01T06:22:59;98725.81;;;4.26;73.47
4024;BME280;2026;51.002;13.668;2023-02-01T06:28:03;98718.13;;;4.33;73.22
4024;BME280;2026;51.002;13.668;2023-02-01T06:33:07;98729.19;;;4.27;73.72
4024;BME280;2026;51.002;13.668;2023-02-01T06:38:10;98719.63;;;4.27;73.84
4024;BME280;2026;51.002;13.668;2023-02-01T06:43:15;98732.25;;;4.31;74.23
4024;BME280;2026;51.002;13.668;2023-02-01T06:48:18;98737.63;;;4.29;74.68
4024;BME280;2026;51.002;13.668;2023-02-01T06:53:21;98729.56;;;4.24;75.42
4024;BME280;2026;51.002;13.668;2023-02-01T06:58:28;98719.56;;;4.21;75.63
4024;BME280;2026;51.002;13.668;2023-02-01T07:03:31;98720.78;;;4.25;76.54
4024;BME280;2026;51.002;13.668;2023-02-01T07:08:35;98709.44;;;4.26;77.39
4024;BME280;2026;51.002;13.668;2023-02-01T07:13:40;98704.25;;;4.11;78.39
4024;BME280;2026;51.002;13.668;2023-02-01T07:18:43;98692.59;;;4.07;79.64
4024;BME280;2026;51.002;13.668;2023-02-01T07:23:46;98715.03;;;3.99;81.66
4024;BME280;2026;51.002;13.668;2023-02-01T07:28:51;98692.22;;;3.80;83.37
4024;BME280;2026;51.002;13.668;2023-02-01T07:33:54;98692.75;;;3.75;84.40
4024;BME280;2026;51.002;13.668;2023-02-01T07:38:59;98688.53;;;3.74;84.24
4024;BME280;2026;51.002;13.668;2023-02-01T07:44:03;98680.25;;;3.79;83.55
4024;BME280;2026;51.002;13.668;2023-02-01T07:49:06;98676.53;;;3.73;83.84
4024;BME280;2026;51.002;13.668;2023-02-01T07:54:09;98681.94;;;3.86;83.19
4024;BME280;2026;51.002;13.668;2023-02-01T07:59:13;98672.63;;;3.77;82.52
4024;BME280;2026;51.002;13.668;2023-02-01T08:04:17;98686.22;;;3.79;82.25
4024;BME280;2026;51.002;13.668;2023-02-01T08:09:20;98655.28;;;3.93;81.73
4024;BME280;2026;51.002;13.668;2023-02-01T08:14:24;98658.78;;;4.00;82.41
4024;BME280;2026;51.002;13.668;2023-02-01T08:19:27;98666.03;;;3.90;82.22
4024;BME280;2026;51.002;13.668;2023-02-01T08:24:30;98653.78;;;3.83;81.96
4024;BME280;2026;51.002;13.668;2023-02-01T08:29:35;98635.25;;;3.86;83.30
4024;BME280;2026;51.002;13.668;2023-02-01T08:34:37;98629.63;;;3.98;80.92
4024;BME280;2026;51.002;13.668;2023-02-01T08:39:40;98626.38;;;4.26;79.22
4024;BME280;2026;51.002;13.668;2023-02-01T08:44:49;98637.03;;;4.31;78.34
4024;BME280;2026;51.002;13.668;2023-02-01T08:49:53;98641.31;;;4.39;77.31
4024;BME280;2026;51.002;13.668;2023-02-01T08:54:56;98630.56;;;4.42;76.79
4024;BME280;2026;51.002;13.668;2023-02-01T09:00:00;98624.41;;;4.43;77.14
4024;BME280;2026;51.002;13.668;2023-02-01T09:05:04;98644.25;;;4.51;76.62
4024;BME280;2026;51.002;13.668;2023-02-01T09:10:08;98623.75;;;4.56;76.99
4024;BME280;2026;51.002;13.668;2023-02-01T09:15:12;98640.31;;;4.55;78.28
4024;BME280;2026;51.002;13.668;2023-02-01T09:20:16;98647.00;;;4.64;78.43
4024;BME280;2026;51.002;13.668;2023-02-01T09:25:20;98645.34;;;4.41;79.33
4024;BME280;2026;51.002;13.668;2023-02-01T09:30:25;98651.72;;;4.24;80.32
4024;BME280;2026;51.002;13.668;2023-02-01T09:35:30;98649.41;;;4.29;81.78
4024;BME280;2026;51.002;13.668;2023-02-01T09:40:34;98657.44;;;4.34;81.92
4024;BME280;2026;51.002;13.668;2023-02-01T09:45:44;98668.19;;;4.01;84.03
4024;BME280;2026;51.002;13.668;2023-02-01T09:50:54;98669.28;;;3.68;86.69
4024;BME280;2026;51.002;13.668;2023-02-01T09:56:04;98680.69;;;3.44;87.16
4024;BME280;2026;51.002;13.668;2023-02-01T10:01:14;98674.06;;;3.41;88.73
4024;BME280;2026;51.002;13.668;2023-02-01T10:06:33;98687.31;;;3.23;88.76
4024;BME280;2026;51.002;13.668;2023-02-01T10:11:46;98693.06;;;3.10;89.22
4024;BME280;2026;51.002;13.668;2023-02-01T10:17:03;98705.16;;;3.18;89.50
4024;BME280;2026;51.002;13.668;2023-02-01T10:22:11;98700.84;;;3.33;89.76
4024;BME280;2026;51.002;13.668;2023-02-01T10:27:28;98715.06;;;3.14;90.50
4024;BME280;2026;51.002;13.668;2023-02-01T10:32:39;98710.22;;;3.11;90.03
4024;BME280;2026;51.002;13.668;2023-02-01T10:37:44;98713.22;;;3.23;89.67
4024;BME280;2026;51.002;13.668;2023-02-01T10:42:56;98695.03;;;3.31;88.72
4024;BME280;2026;51.002;13.668;2023-02-01T10:48:02;98700.50;;;3.37;90.04
4024;BME280;2026;51.002;13.668;2023-02-01T10:53:11;98708.38;;;3.67;88.75
4024;BME280;2026;51.002;13.668;2023-02-01T10:58:16;98707.41;;;3.83;88.17
4024;BME280;2026;51.002;13.668;2023-02-01T11:03:38;98713.34;;;4.07;87.34
4024;BME280;2026;51.002;13.668;2023-02-01T11:08:43;98704.50;;;4.16;86.47
4024;BME280;2026;51.002;13.668;2023-02-01T11:13:52;98722.06;;;4.29;85.51
4024;BME280;2026;51.002;13.668;2023-02-01T11:18:58;98706.66;;;4.27;85.52
4024;BME280;2026;51.002;13.668;2023-02-01T11:24:02;98716.59;;;4.24;85.57
4024;BME280;2026;51.002;13.668;2023-02-01T11:29:12;98711.50;;;4.46;84.08
4024;BME280;2026;51.002;13.668;2023-02-01T11:34:24;98693.75;;;4.64;82.43
4024;BME280;2026;51.002;13.668;2023-02-01T11:39:30;98703.41;;;4.70;82.32
4024;BME280;2026;51.002;13.668;2023-02-01T11:44:35;98684.97;;;4.65;81.32
4024;BME280;2026;51.002;13.668;2023-02-01T11:49:40;98682.78;;;4.84;81.09
4024;BME280;2026;51.002;13.668;2023-02-01T11:54:54;98688.31;;;4.81;80.42
4024;BME280;2026;51.002;13.668;2023-02-01T12:00:10;98664.41;;;4.86;80.89
4024;BME280;2026;51.002;13.668;2023-02-01T12:05:25;98664.97;;;5.03;81.40
4024;BME280;2026;51.002;13.668;2023-02-01T12:10:41;98661.25;;;5.12;79.77
4024;BME280;2026;51.002;13.668;2023-02-01T12:15:55;98664.41;;;5.07;79.27
4024;BME280;2026;51.002;13.668;2023-02-01T12:21:06;98652.16;;;5.01;78.78
4024;BME280;2026;51.002;13.668;2023-02-01T12:26:33;98658.19;;;5.02;77.63
4024;BME280;2026;51.002;13.668;2023-02-01T12:32:02;98650.56;;;5.00;77.49
4024;BME280;2026;51.002;13.668;2023-02-01T12:37:16;98650.50;;;4.93;78.65
4024;BME280;2026;51.002;13.668;2023-02-01T12:42:26;98648.41;;;5.04;78.02
4024;BME280;2026;51.002;13.668;2023-02-01T12:47:36;98652.59;;;5.05;77.51
4024;BME280;2026;51.002;13.668;2023-02-01T12:52:44;98661.09;;;5.14;78.12
4024;BME280;2026;51.002;13.668;2023-02-01T12:57:50;98644.75;;;5.20;77.75
4024;BME280;2026;51.002;13.668;2023-02-01T13:02:59;98646.28;;;5.36;77.85
4024;BME280;2026;51.002;13.668;2023-02-01T13:08:07;98635.25;;;5.34;76.60
4024;BME280;2026;51.002;13.668;2023-02-01T13:13:15;98626.66;;;5.33;77.07
4024;BME280;2026;51.002;13.668;2023-02-01T13:18:20;98633.38;;;5.49;77.60
4024;BME280;2026;51.002;13.668;2023-02-01T13:23:31;98633.91;;;5.66;75.95
4024;BME280;2026;51.002;13.668;2023-02-01T13:28:41;98633.50;;;5.63;75.93
4024;BME280;2026;51.002;13.668;2023-02-01T13:33:59;98624.84;;;5.56;75.73
4024;BME280;2026;51.002;13.668;2023-02-01T13:39:40;98616.22;;;5.55;74.76
4024;BME280;2026;51.002;13.668;2023-02-01T13:44:48;98603.56;;;5.74;73.25
4024;BME280;2026;51.002;13.668;2023-02-01T13:49:54;98596.94;;;5.71;73.08
4024;BME280;2026;51.002;13.668;2023-02-01T13:55:16;98599.91;;;5.68;72.84
4024;BME280;2026;51.002;13.668;2023-02-01T14:00:28;98596.53;;;5.74;72.53
4024;BME280;2026;51.002;13.668;2023-02-01T14:06:02;98587.88;;;5.67;72.55
4024;BME280;2026;51.002;13.668;2023-02-01T14:11:39;98593.72;;;5.69;71.30
4024;BME280;2026;51.002;13.668;2023-02-01T14:16:43;98594.91;;;5.66;72.13
4024;BME280;2026;51.002;13.668;2023-02-01T14:21:47;98591.13;;;5.69;70.59
4024;BME280;2026;51.002;13.668;2023-02-01T14:26:54;98613.91;;;5.67;71.15
4024;BME280;2026;51.002;13.668;2023-02-01T14:32:03;98590.22;;;5.55;71.15
4024;BME280;2026;51.002;13.668;2023-02-01T14:37:09;98566.03;;;5.55;71.69
4024;BME280;2026;51.002;13.668;2023-02-01T14:42:23;98573.63;;;5.56;71.20
4024;BME280;2026;51.002;13.668;2023-02-01T14:47:32;98590.94;;;5.42;71.90
4024;BME280;2026;51.002;13.668;2023-02-01T14:52:37;98567.53;;;5.42;71.77
4024;BME280;2026;51.002;13.668;2023-02-01T14:57:48;98585.31;;;5.38;71.73
4024;BME280;2026;51.002;13.668;2023-02-01T15:02:54;98575.91;;;5.37;71.20
4024;BME280;2026;51.002;13.668;2023-02-01T15:08:00;98565.31;;;5.39;70.81
4024;BME280;2026;51.002;13.668;2023-02-01T15:13:18;98575.47;;;5.34;71.38
4024;BME280;2026;51.002;13.668;2023-02-01T15:18:21;98563.97;;;5.21;73.33
4024;BME280;2026;51.002;13.668;2023-02-01T15:23:24;98551.91;;;5.07;75.75
4024;BME280;2026;51.002;13.668;2023-02-01T15:28:29;98533.72;;;5.07;75.15
4024;BME280;2026;51.002;13.668;2023-02-01T15:33:32;98530.03;;;5.01;74.48
4024;BME280;2026;51.002;13.668;2023-02-01T15:38:39;98529.44;;;4.99;74.75
4024;BME280;2026;51.002;13.668;2023-02-01T15:43:49;98506.88;;;5.00;74.38
4024;BME280;2026;51.002;13.668;2023-02-01T15:49:18;98495.25;;;4.95;74.46
4024;BME280;2026;51.002;13.668;2023-02-01T15:54:25;98485.22;;;4.92;74.15
4024;BME280;2026;51.002;13.668;2023-02-01T15:59:37;98491.19;;;4.86;74.84
4024;BME280;2026;51.002;13.668;2023-02-01T16:04:47;98511.09;;;4.57;77.67
4024;BME280;2026;51.002;13.668;2023-02-01T16:09:54;98503.06;;;4.30;80.85
4024;BME280;2026;51.002;13.668;2023-02-01T16:14:58;98491.78;;;4.01;82.79
4024;BME280;2026;51.002;13.668;2023-02-01T16:20:02;98447.50;;;3.66;85.21
4024;BME280;2026;51.002;13.668;2023-02-01T16:25:05;98446.53;;;3.67;85.29
4024;BME280;2026;51.002;13.668;2023-02-01T16:30:11;98441.88;;;3.47;85.54
4024;BME280;2026;51.002;13.668;2023-02-01T16:35:20;98431.06;;;3.43;87.25
4024;BME280;2026;51.002;13.668;2023-02-01T16:40:25;98439.13;;;3.49;87.33
4024;BME280;2026;51.002;13.668;2023-02-01T16:45:30;98448.22;;;3.59;86.78
4024;BME280;2026;51.002;13.668;2023-02-01T16:50:33;98452.00;;;3.57;87.03
4024;BME280;2026;51.002;13.668;2023-02-01T16:55:36;98448.47;;;3.65;86.48
4024;BME280;2026;51.002;13.668;2023-02-01T17:00:40;98480.84;;;3.54;87.70
4024;BME280;2026;51.002;13.668;2023-02-01T17:05:44;98575.38;;;3.28;89.56
4024;BME280;2026;51.002;13.668;2023-02-01T17:10:48;98617.94;;;2.63;90.06
4024;BME280;2026;51.002;13.668;2023-02-01T17:15:56;98583.97;;;1.95;92.47
4024;BME280;2026;51.002;13.668;2023-02-01T17:21:00;98549.00;;;1.67;93.40
4024;BME280;2026;51.002;13.668;2023-02-01T17:26:04;98544.31;;;2.11;92.24
4024;BME280;2026;51.002;13.668;2023-02-01T17:31:11;98551.47;;;2.32;91.09
4024;BME280;2026;51.002;13.668;2023-02-01T17:36:16;98538.03;;;2.37;90.29
4024;BME280;2026;51.002;13.668;2023-02-01T17:41:20;98558.59;;;2.30;89.78
4024;BME280;2026;51.002;13.668;2023-02-01T17:46:24;98565.84;;;2.35;88.55
4024;BME280;2026;51.002;13.668;2023-02-01T17:51:28;98581.84;;;2.39;88.01
4024;BME280;2026;51.002;13.668;2023-02-01T17:56:32;98581.97;;;2.45;88.64
4024;BME280;2026;51.002;13.668;2023-02-01T18:01:36;98609.34;;;2.63;87.21
4024;BME280;2026;51.002;13.668;2023-02-01T18:06:41;98622.59;;;2.68;87.38
4024;BME280;2026;51.002;13.668;2023-02-01T18:11:44;98616.84;;;2.58;87.14
4024;BME280;2026;51.002;13.668;2023-02-01T18:16:51;98617.41;;;2.68;86.63
4024;BME280;2026;51.002;13.668;2023-02-01T18:21:54;98607.06;;;2.68;87.54
4024;BME280;2026;51.002;13.668;2023-02-01T18:26:58;98612.59;;;2.65;87.22
4024;BME280;2026;51.002;13.668;2023-02-01T18:32:03;98622.66;;;2.60;88.45
4024;BME280;2026;51.002;13.668;2023-02-01T18:37:06;98620.22;;;2.58;87.41
4024;BME280;2026;51.002;13.668;2023-02-01T18:42:09;98622.34;;;2.55;87.48
4024;BME280;2026;51.002;13.668;2023-02-01T18:47:13;98628.81;;;2.59;87.54
4024;BME280;2026;51.002;13.668;2023-02-01T18:52:16;98633.38;;;2.48;87.48
4024;BME280;2026;51.002;13.668;2023-02-01T18:57:19;98618.31;;;2.52;87.57
4024;BME280;2026;51.002;13.668;2023-02-01T19:02:24;98617.41;;;2.45;86.77
4024;BME280;2026;51.002;13.668;2023-02-01T19:07:28;98618.53;;;2.42;86.59
4024;BME280;2026;51.002;13.668;2023-02-01T19:12:31;98627.59;;;2.38;87.04
4024;BME280;2026;51.002;13.668;2023-02-01T19:17:37;98622.44;;;2.38;87.06
4024;BME280;2026;51.002;13.668;2023-02-01T19:22:41;98628.03;;;2.50;86.30
4024;BME280;2026;51.002;13.668;2023-02-01T19:27:44;98619.13;;;2.53;86.64
4024;BME280;2026;51.002;13.668;2023-02-01T19:32:50;98626.84;;;2.61;85.99
4024;BME280;2026;51.002;13.668;2023-02-01T19:37:53;98629.72;;;2.66;85.74
4024;BME280;2026;51.002;13.668;2023-02-01T19:42:56;98634.56;;;2.69;85.56
4024;BME280;2026;51.002;13.668;2023-02-01T19:48:01;98634.81;;;2.83;84.74
4024;BME280;2026;51.002;13.668;2023-02-01T19:53:06;98630.09;;;2.86;84.63
4024;BME280;2026;51.002;13.668;2023-02-01T19:58:09;98637.00;;;2.94;84.25
4024;BME280;2026;51.002;13.668;2023-02-01T20:03:13;98629.28;;;2.86;85.33
4024;BME280;2026;51.002;13.668;2023-02-01T20:08:16;98628.13;;;2.88;85.07
4024;BME280;2026;51.002;13.668;2023-02-01T20:13:19;98623.41;;;2.92;84.59
4024;BME280;2026;51.002;13.668;2023-02-01T20:18:24;98647.13;;;3.04;84.66
4024;BME280;2026;51.002;13.668;2023-02-01T20:23:27;98647.19;;;2.96;84.68
4024;BME280;2026;51.002;13.668;2023-02-01T20:28:30;98659.00;;;2.98;83.97
4024;BME280;2026;51.002;13.668;2023-02-01T20:33:35;98672.88;;;3.05;84.29
4024;BME280;2026;51.002;13.668;2023-02-01T20:38:38;98682.31;;;2.98;85.85
4024;BME280;2026;51.002;13.668;2023-02-01T20:43:41;98687.06;;;2.86;86.21
4024;BME280;2026;51.002;13.668;2023-02-01T20:48:47;98692.72;;;2.90;86.18
4024;BME280;2026;51.002;13.668;2023-02-01T20:53:50;98683.59;;;2.94;85.16
4024;BME280;2026;51.002;13.668;2023-02-01T20:58:55;98696.22;;;2.97;85.36
4024;BME280;2026;51.002;13.668;2023-02-01T21:04:05;98688.47;;;2.97;85.97
4024;BME280;2026;51.002;13.668;2023-02-01T21:09:08;98685.19;;;3.03;85.59
4024;BME280;2026;51.002;13.668;2023-02-01T21:14:11;98699.16;;;2.94;85.12
4024;BME280;2026;51.002;13.668;2023-02-01T21:19:16;98696.13;;;3.14;86.67
4024;BME280;2026;51.002;13.668;2023-02-01T21:24:19;98701.63;;;3.11;85.45
4024;BME280;2026;51.002;13.668;2023-02-01T21:29:22;98690.78;;;3.15;86.10
4024;BME280;2026;51.002;13.668;2023-02-01T21:34:27;98700.06;;;3.01;86.15
4024;BME280;2026;51.002;13.668;2023-02-01T21:39:30;98689.38;;;3.04;85.37
4024;BME280;2026;51.002;13.668;2023-02-01T21:44:33;98709.22;;;2.89;86.44
4024;BME280;2026;51.002;13.668;2023-02-01T21:49:37;98709.38;;;2.87;86.72
4024;BME280;2026;51.002;13.668;2023-02-01T21:54:40;98705.22;;;2.78;87.90
4024;BME280;2026;51.002;13.668;2023-02-01T21:59:43;98711.56;;;2.75;87.95
4024;BME280;2026;51.002;13.668;2023-02-01T22:04:47;98700.84;;;2.78;89.33
4024;BME280;2026;51.002;13.668;2023-02-01T22:09:51;98713.78;;;2.78;89.09
4024;BME280;2026;51.002;13.668;2023-02-01T22:14:54;98716.72;;;2.75;88.86
4024;BME280;2026;51.002;13.668;2023-02-01T22:19:58;98718.81;;;2.80;89.45
4024;BME280;2026;51.002;13.668;2023-02-01T22:25:01;98712.50;;;2.83;88.98
4024;BME280;2026;51.002;13.668;2023-02-01T22:30:05;98721.47;;;2.95;88.61
4024;BME280;2026;51.002;13.668;2023-02-01T22:35:10;98707.72;;;2.95;87.88
4024;BME280;2026;51.002;13.668;2023-02-01T22:40:13;98712.41;;;2.99;88.02
4024;BME280;2026;51.002;13.668;2023-02-01T22:45:16;98713.69;;;3.03;88.50
4024;BME280;2026;51.002;13.668;2023-02-01T22:50:20;98720.16;;;2.99;87.83
4024;BME280;2026;51.002;13.668;2023-02-01T22:55:23;98702.50;;;3.03;86.73
4024;BME280;2026;51.002;13.668;2023-02-01T23:00:26;98709.66;;;3.01;86.60
4024;BME280;2026;51.002;13.668;2023-02-01T23:05:31;98710.44;;;3.01;86.03
4024;BME280;2026;51.002;13.668;2023-02-01T23:10:34;98706.41;;;2.99;85.13
4024;BME280;2026;51.002;13.668;2023-02-01T23:15:37;98701.78;;;2.86;85.69
4024;BME280;2026;51.002;13.668;2023-02-01T23:20:42;98693.38;;;2.84;85.36
4024;BME280;2026;51.002;13.668;2023-02-01T23:25:48;98696.59;;;2.86;85.22
4024;BME280;2026;51.002;13.668;2023-02-01T23:30:51;98698.91;;;2.81;85.75
4024;BME280;2026;51.002;13.668;2023-02-01T23:35:58;98705.03;;;2.88;86.69
4024;BME280;2026;51.002;13.668;2023-02-01T23:41:02;98707.16;;;2.84;86.04
4024;BME280;2026;51.002;13.668;2023-02-01T23:46:05;98707.25;;;2.91;85.91
4024;BME280;2026;51.002;13.668;2023-02-01T23:51:10;98704.56;;;2.84;86.44
4024;BME280;2026;51.002;13.668;2023-02-01T23:56:18;98725.91;;;2.86;85.60
